Time;durP1;ratioP1;P1;durP2;ratioP2;P2;SDS_P1;SDS_P2;PMS_P1;PMS_P2;Temp;Humidity;BMP_temperature;BMP_pressure;BME280_temperature;BME280_humidity;BME280_pressure;Samples;Min_cycle;Max_cycle;Signal;HPM_P1;HPM_P2
2021/04/05 04:09:52;;;;;;;10.33;3.87;;;;;;;;;;4898043;23;20688;-90
2021/04/05 04:12:58;;;;;;;7.43;3.90;;;;;;;;;;4929891;29;20597;-91
2021/04/05 04:16:04;;;;;;;7.07;3.87;;;;;;;;;;4908333;29;20605;-90
2021/04/05 04:19:10;;;;;;;7.53;3.67;;;;;;;;;;4908410;29;20553;-90
2021/04/05 04:22:15;;;;;;;6.17;3.83;;;;;;;;;;4889327;29;21111;-90
2021/04/05 04:25:19;;;;;;;7.10;3.90;;;;;;;;;;4888934;29;20601;-90
2021/04/05 04:28:23;;;;;;;7.93;4.00;;;;;;;;;;4889184;29;20602;-90
2021/04/05 04:31:28;;;;;;;5.60;3.87;;;;;;;;;;4899736;29;20633;-90
2021/04/05 04:34:34;;;;;;;5.00;3.80;;;;;;;;;;4899708;29;21097;-90
2021/04/05 04:37:41;;;;;;;9.13;3.60;;;;;;;;;;4878525;29;20554;-90
2021/04/05 04:40:46;;;;;;;6.90;3.90;;;;;;;;;;4878023;29;20657;-90
2021/04/05 04:43:54;;;;;;;6.03;3.77;;;;;;;;;;4888670;29;20921;-90
2021/04/05 04:46:59;;;;;;;7.03;4.10;;;;;;;;;;4888633;29;20560;-90
2021/04/05 04:50:04;;;;;;;7.17;4.20;;;;;;;;;;4899664;29;20629;-90
2021/04/05 04:53:09;;;;;;;5.83;3.60;;;;;;;;;;4888872;29;20559;-90
2021/04/05 04:56:14;;;;;;;7.23;3.77;;;;;;;;;;4899069;29;20594;-90
2021/04/05 04:59:20;;;;;;;5.50;3.83;;;;;;;;;;4888670;29;20554;-90
2021/04/05 05:02:25;;;;;;;10.03;4.03;;;;;;;;;;4888675;29;20554;-90
2021/04/05 05:05:34;;;;;;;27.90;5.13;;;;;;;;;;4888731;29;20542;-91
2021/04/05 05:08:38;;;;;;;4.97;3.77;;;;;;;;;;4899016;29;20558;-91
2021/04/05 05:11:43;;;;;;;7.60;3.73;;;;;;;;;;4869836;29;20549;-90
2021/04/05 05:14:48;;;;;;;8.90;3.73;;;;;;;;;;4884784;29;20692;-90
2021/04/05 05:17:52;;;;;;;5.77;3.43;;;;;;;;;;4880233;29;20551;-90
2021/04/05 05:20:59;;;;;;;6.77;3.73;;;;;;;;;;4880092;29;20987;-90
2021/04/05 05:24:08;;;;;;;6.27;3.63;;;;;;;;;;4880509;29;20559;-90
2021/04/05 05:27:14;;;;;;;6.70;3.93;;;;;;;;;;4890809;29;20544;-91
2021/04/05 05:30:22;;;;;;;6.50;3.97;;;;;;;;;;4880134;29;21197;-92
2021/04/05 05:33:26;;;;;;;5.37;3.50;;;;;;;;;;4890636;29;20543;-92
2021/04/05 05:36:30;;;;;;;6.47;3.47;;;;;;;;;;4889248;29;20633;-89
2021/04/05 05:39:34;;;;;;;6.83;4.00;;;;;;;;;;4879768;29;20620;-91
2021/04/05 05:42:54;;;;;;;6.67;3.90;;;;;;;;;;4879634;29;21169;-92
2021/04/05 05:46:13;;;;;;;8.20;3.87;;;;;;;;;;4897934;29;20558;-91
2021/04/05 05:49:35;;;;;;;5.97;3.53;;;;;;;;;;4890477;29;20555;-91
2021/04/05 05:52:58;;;;;;;6.27;3.27;;;;;;;;;;4890076;29;20560;-92
2021/04/05 05:56:16;;;;;;;7.67;3.30;;;;;;;;;;4890118;29;20611;-92
2021/04/05 05:59:55;;;;;;;6.73;3.20;;;;;;;;;;4890458;29;20576;-91
2021/04/05 06:03:31;;;;;;;5.07;3.53;;;;;;;;;;4874275;29;20571;-92
2021/04/05 06:06:53;;;;;;;5.93;3.37;;;;;;;;;;4890109;29;20559;-92
2021/04/05 06:10:16;;;;;;;9.37;3.37;;;;;;;;;;4894785;29;21243;-92
2021/04/05 06:13:43;;;;;;;8.00;3.30;;;;;;;;;;4876409;29;20586;-92
2021/04/05 06:16:59;;;;;;;4.97;3.30;;;;;;;;;;4889894;29;20615;-91
2021/04/05 06:20:17;;;;;;;8.83;4.47;;;;;;;;;;4889824;29;20634;-91
2021/04/05 06:23:45;;;;;;;9.00;5.70;;;;;;;;;;4890144;29;20555;-91
2021/04/05 06:27:05;;;;;;;5.60;3.60;;;;;;;;;;4890056;29;20551;-90
2021/04/05 06:30:25;;;;;;;4.40;3.57;;;;;;;;;;4881207;29;20221;-91
2021/04/05 06:33:34;;;;;;;6.63;3.30;;;;;;;;;;4889894;29;20650;-92
2021/04/05 06:36:56;;;;;;;6.37;3.40;;;;;;;;;;4879219;29;20222;-92
2021/04/05 06:40:12;;;;;;;10.87;3.70;;;;;;;;;;4878689;29;20226;-91
2021/04/05 06:43:35;;;;;;;6.67;2.97;;;;;;;;;;4879179;29;20187;-92
2021/04/05 06:46:59;;;;;;;5.07;3.17;;;;;;;;;;4879367;29;20183;-92
2021/04/05 06:50:13;;;;;;;6.90;2.70;;;;;;;;;;4878820;29;20230;-92
2021/04/05 06:53:35;;;;;;;5.57;3.07;;;;;;;;;;4879222;29;20626;-93
2021/04/05 06:57:13;;;;;;;6.37;3.63;;;;;;;;;;4881522;29;20206;-92
2021/04/05 07:00:36;;;;;;;4.03;3.40;;;;;;;;;;4893343;29;20228;-92
2021/04/05 07:03:59;;;;;;;6.90;3.97;;;;;;;;;;4893327;29;20626;-91
2021/04/05 07:07:22;;;;;;;7.33;4.40;;;;;;;;;;4893248;29;20638;-92
2021/04/05 07:10:30;;;;;;;14.37;3.60;;;;;;;;;;4893517;29;20226;-92
2021/04/05 07:14:20;;;;;;;8.17;3.30;;;;;;;;;;4881476;29;20214;-91
2021/04/05 07:17:49;;;;;;;7.53;4.23;;;;;;;;;;4912153;29;20205;-89
2021/04/05 07:21:06;;;;;;;9.63;7.00;;;;;;;;;;4919617;29;20232;-89
2021/04/05 07:24:30;;;;;;;8.03;5.43;;;;;;;;;;4919996;29;20181;-90
2021/04/05 07:27:59;;;;;;;6.70;3.30;;;;;;;;;;4919342;29;20185;-90
2021/04/05 07:31:15;;;;;;;6.87;3.30;;;;;;;;;;4930369;29;20220;-91
2021/04/05 07:34:22;;;;;;;4.60;2.90;;;;;;;;;;4907944;29;20205;-89
2021/04/05 07:37:47;;;;;;;6.93;3.20;;;;;;;;;;4889471;29;20213;-90
2021/04/05 07:41:01;;;;;;;6.20;3.17;;;;;;;;;;4889637;29;20233;-90
2021/04/05 07:44:19;;;;;;;4.67;2.90;;;;;;;;;;4911412;29;20190;-90
2021/04/05 07:47:39;;;;;;;9.73;3.30;;;;;;;;;;4901901;29;20201;-88
2021/04/05 07:50:58;;;;;;;7.03;3.17;;;;;;;;;;4884736;29;20229;-89
2021/04/05 07:54:05;;;;;;;5.00;3.00;;;;;;;;;;4900412;29;20637;-88
2021/04/05 07:57:23;;;;;;;6.07;3.13;;;;;;;;;;4878713;29;20217;-89
2021/04/05 08:00:59;;;;;;;7.13;2.83;;;;;;;;;;4911193;29;20222;-91
2021/04/05 08:04:10;;;;;;;6.77;2.87;;;;;;;;;;4880175;29;20182;-91
2021/04/05 08:07:32;;;;;;;5.57;2.87;;;;;;;;;;4889744;29;20182;-90
2021/04/05 08:11:02;;;;;;;3.23;2.60;;;;;;;;;;4890802;29;20225;-90
2021/04/05 08:14:12;;;;;;;6.30;3.30;;;;;;;;;;4890428;29;20190;-88
2021/04/05 08:17:51;;;;;;;6.20;2.47;;;;;;;;;;4889867;29;20692;-87
2021/04/05 08:21:06;;;;;;;5.00;2.70;;;;;;;;;;4899612;29;20233;-87
2021/04/05 08:24:32;;;;;;;8.13;2.80;;;;;;;;;;4900487;29;20201;-88
2021/04/05 08:27:41;;;;;;;14.17;3.10;;;;;;;;;;4880970;29;20179;-89
2021/04/05 08:31:09;;;;;;;5.87;3.20;;;;;;;;;;4898461;29;20229;-88
2021/04/05 08:34:26;;;;;;;35.40;5.40;;;;;;;;;;4888633;29;20193;-88
2021/04/05 08:37:50;;;;;;;7.90;3.47;;;;;;;;;;4899232;29;20213;-89
2021/04/05 08:41:29;;;;;;;6.87;3.60;;;;;;;;;;4887667;29;20891;-88
2021/04/05 08:44:43;;;;;;;11.57;3.30;;;;;;;;;;4888330;29;20201;-88
2021/04/05 08:48:03;;;;;;;5.97;3.10;;;;;;;;;;4891467;29;20198;-88
2021/04/05 08:51:44;;;;;;;6.27;3.60;;;;;;;;;;4891516;29;20218;-88
2021/04/05 08:54:49;;;;;;;8.20;3.83;;;;;;;;;;4891383;29;20190;-88
2021/04/05 08:58:04;;;;;;;7.17;4.67;;;;;;;;;;4891257;29;20681;-88
2021/04/05 09:01:15;;;;;;;5.73;3.50;;;;;;;;;;4891316;29;20222;-88
2021/04/05 09:04:22;;;;;;;10.93;3.40;;;;;;;;;;4891093;29;20190;-88
2021/04/05 09:07:45;;;;;;;5.13;3.10;;;;;;;;;;4880671;29;20191;-88
2021/04/05 09:10:55;;;;;;;4.47;3.17;;;;;;;;;;4890803;29;20705;-88
2021/04/05 09:14:02;;;;;;;8.50;2.90;;;;;;;;;;4890713;29;20191;-88
2021/04/05 09:17:36;;;;;;;8.27;3.20;;;;;;;;;;4879852;29;20251;-88
2021/04/05 09:21:04;;;;;;;7.47;2.90;;;;;;;;;;4885960;29;20234;-88
2021/04/05 09:24:47;;;;;;;10.97;2.97;;;;;;;;;;4890574;29;20186;-90
2021/04/05 09:28:45;;;;;;;6.00;2.70;;;;;;;;;;4891156;29;20178;-90
2021/04/05 09:32:27;;;;;;;5.80;2.77;;;;;;;;;;4891576;29;20822;-89
2021/04/05 09:35:41;;;;;;;9.17;3.27;;;;;;;;;;4887984;29;20625;-89
2021/04/05 09:39:15;;;;;;;9.43;3.43;;;;;;;;;;4888267;29;20524;-90
2021/04/05 09:42:45;;;;;;;8.53;3.40;;;;;;;;;;4890578;29;20221;-90
2021/04/05 09:46:22;;;;;;;12.83;4.77;;;;;;;;;;4898206;29;20193;-89
2021/04/05 09:50:26;;;;;;;44.30;17.57;;;;;;;;;;4889984;29;20179;-89
2021/04/05 09:54:03;;;;;;;23.90;11.03;;;;;;;;;;4883742;29;20618;-89
2021/04/05 09:57:15;;;;;;;100.00;12.77;;;;;;;;;;4898816;29;20256;-89
2021/04/05 10:00:22;;;;;;;12.70;8.63;;;;;;;;;;4906678;29;20727;-89
2021/04/05 10:03:27;;;;;;;7.33;4.60;;;;;;;;;;4898010;29;20526;-88
2021/04/05 10:06:34;;;;;;;9.43;3.50;;;;;;;;;;4887429;29;20197;-87
2021/04/05 10:09:41;;;;;;;8.50;2.43;;;;;;;;;;4897855;29;20225;-89
2021/04/05 10:12:47;;;;;;;8.47;2.87;;;;;;;;;;4887742;29;20181;-92
2021/04/05 10:18:58;;;;;;;8.40;3.10;;;;;;;;;;4898222;29;20225;-77
2021/04/05 10:22:04;;;;;;;8.63;3.53;;;;;;;;;;4897818;29;20708;-77
2021/04/05 10:25:11;;;;;;;6.13;2.60;;;;;;;;;;4907250;29;20201;-74
2021/04/05 10:28:16;;;;;;;7.37;3.33;;;;;;;;;;4897842;29;20534;-75
2021/04/05 10:31:24;;;;;;;9.30;3.13;;;;;;;;;;4899962;29;20190;-74
2021/04/05 10:34:29;;;;;;;16.30;5.80;;;;;;;;;;4900792;29;20205;-74
2021/04/05 10:37:38;;;;;;;26.47;10.00;;;;;;;;;;4902084;29;20221;-74
2021/04/05 10:40:43;;;;;;;4.03;2.00;;;;;;;;;;4901756;29;20224;-74
2021/04/05 10:44:09;;;;;;;6.70;2.90;;;;;;;;;;4901697;29;20217;-74
2021/04/05 10:47:20;;;;;;;8.00;2.77;;;;;;;;;;4895828;29;20185;-74
2021/04/05 10:50:27;;;;;;;5.43;2.70;;;;;;;;;;4901790;29;20185;-74
2021/04/05 10:53:39;;;;;;;11.60;4.90;;;;;;;;;;4890151;29;20220;-73
2021/04/05 10:56:49;;;;;;;7.23;2.53;;;;;;;;;;4882157;29;20194;-73
2021/04/05 10:59:55;;;;;;;16.70;4.07;;;;;;;;;;4895013;29;20201;-73
2021/04/05 11:03:14;;;;;;;15.77;4.23;;;;;;;;;;4901138;29;20221;-73
2021/04/05 11:06:21;;;;;;;9.17;3.77;;;;;;;;;;4900345;29;20205;-74
2021/04/05 11:09:27;;;;;;;6.67;3.00;;;;;;;;;;4889902;29;20186;-74
2021/04/05 11:12:43;;;;;;;26.40;8.43;;;;;;;;;;4882315;29;20550;-72
2021/04/05 11:15:48;;;;;;;8.23;2.77;;;;;;;;;;4894997;29;20202;-71
2021/04/05 11:19:01;;;;;;;7.47;2.83;;;;;;;;;;4900001;29;20224;-71
2021/04/05 11:22:16;;;;;;;10.17;4.77;;;;;;;;;;4905514;29;20224;-72
2021/04/05 11:25:25;;;;;;;25.90;13.17;;;;;;;;;;4920239;29;20190;-71
2021/04/05 11:28:32;;;;;;;38.33;20.03;;;;;;;;;;4900825;29;20193;-71
2021/04/05 11:31:45;;;;;;;5.90;3.40;;;;;;;;;;4888747;29;20224;-71
2021/04/05 11:34:56;;;;;;;19.03;3.60;;;;;;;;;;4898439;29;20189;-72
2021/04/05 11:38:18;;;;;;;6.20;2.80;;;;;;;;;;4893258;29;20202;-71
2021/04/05 11:41:29;;;;;;;6.17;2.73;;;;;;;;;;4890141;29;20209;-71
2021/04/05 11:44:47;;;;;;;4.90;2.70;;;;;;;;;;4888861;29;20201;-73
2021/04/05 11:47:53;;;;;;;5.07;2.83;;;;;;;;;;4878382;29;20197;-76
2021/04/05 11:50:58;;;;;;;7.13;2.10;;;;;;;;;;4899840;29;20530;-75
2021/04/05 11:54:04;;;;;;;8.63;2.40;;;;;;;;;;4878829;29;20186;-74
2021/04/05 11:57:11;;;;;;;10.23;2.50;;;;;;;;;;4900202;29;20209;-75
2021/04/05 12:00:20;;;;;;;6.13;2.33;;;;;;;;;;4899325;29;20210;-75
2021/04/05 12:03:42;;;;;;;5.50;1.90;;;;;;;;;;4910215;29;20217;-75
2021/04/05 12:07:04;;;;;;;9.50;2.00;;;;;;;;;;4899296;29;20198;-74
2021/04/05 12:10:20;;;;;;;42.83;4.17;;;;;;;;;;4888506;29;20193;-75
2021/04/05 12:13:34;;;;;;;8.10;2.33;;;;;;;;;;4899831;29;20217;-75
2021/04/05 12:16:39;;;;;;;6.67;2.70;;;;;;;;;;4898951;29;20197;-75
2021/04/05 12:19:46;;;;;;;5.50;2.40;;;;;;;;;;4899083;29;20661;-75
2021/04/05 12:22:57;;;;;;;8.23;2.47;;;;;;;;;;4898728;29;20221;-75
2021/04/05 12:26:02;;;;;;;9.10;3.10;;;;;;;;;;4899552;29;20197;-75
2021/04/05 12:29:09;;;;;;;6.37;2.17;;;;;;;;;;4877479;29;20190;-74
2021/04/05 12:32:19;;;;;;;11.50;3.87;;;;;;;;;;4888615;29;20229;-75
2021/04/05 12:35:25;;;;;;;6.97;3.40;;;;;;;;;;4887976;29;20226;-75
2021/04/05 12:38:36;;;;;;;9.43;3.13;;;;;;;;;;4898733;29;20661;-75
2021/04/05 12:41:44;;;;;;;4.93;2.87;;;;;;;;;;4880796;29;20190;-76
2021/04/05 12:44:57;;;;;;;9.30;2.17;;;;;;;;;;4893267;29;20193;-75
2021/04/05 12:48:02;;;;;;;9.63;2.97;;;;;;;;;;4898757;29;20182;-76
2021/04/05 12:51:09;;;;;;;6.77;2.00;;;;;;;;;;4892394;29;20185;-75
2021/04/05 12:54:13;;;;;;;4.90;2.03;;;;;;;;;;4898347;29;20185;-75
2021/04/05 12:57:27;;;;;;;6.90;1.80;;;;;;;;;;4899319;29;20186;-75
2021/04/05 13:00:37;;;;;;;8.37;1.97;;;;;;;;;;4898794;29;20243;-75
2021/04/05 13:03:51;;;;;;;6.93;1.70;;;;;;;;;;4903728;29;20228;-75
2021/04/05 13:06:59;;;;;;;5.13;1.43;;;;;;;;;;4918604;29;20181;-75
2021/04/05 13:10:17;;;;;;;3.60;1.20;;;;;;;;;;4906604;29;20181;-75
2021/04/05 13:13:24;;;;;;;9.00;1.83;;;;;;;;;;4915051;29;20221;-75
2021/04/05 13:16:37;;;;;;;5.83;1.47;;;;;;;;;;4895517;29;20209;-76
2021/04/05 13:19:51;;;;;;;6.40;1.57;;;;;;;;;;4898037;29;20197;-76
2021/04/05 13:23:00;;;;;;;2.93;1.33;;;;;;;;;;4898323;29;20225;-75
2021/04/05 13:26:11;;;;;;;6.67;1.90;;;;;;;;;;4897911;29;20198;-75
2021/04/05 13:29:24;;;;;;;4.53;1.60;;;;;;;;;;4868945;29;20179;-75
2021/04/05 13:32:33;;;;;;;6.20;1.80;;;;;;;;;;4879863;29;20217;-75
2021/04/05 13:35:38;;;;;;;5.03;1.47;;;;;;;;;;4890129;29;20190;-75
2021/04/05 13:38:49;;;;;;;4.03;1.47;;;;;;;;;;4889483;29;20218;-75
2021/04/05 13:42:22;;;;;;;8.47;2.03;;;;;;;;;;4879304;29;20190;-74
2021/04/05 13:45:32;;;;;;;4.00;1.60;;;;;;;;;;4885783;29;20189;-75
2021/04/05 13:48:39;;;;;;;8.17;2.40;;;;;;;;;;4897312;29;20197;-75
2021/04/05 13:51:45;;;;;;;6.57;2.03;;;;;;;;;;4897455;29;20185;-75
2021/04/05 13:55:03;;;;;;;5.13;1.83;;;;;;;;;;4898557;29;20201;-75
2021/04/05 13:58:13;;;;;;;5.50;1.73;;;;;;;;;;4896667;29;20214;-75
2021/04/05 14:01:21;;;;;;;5.47;2.00;;;;;;;;;;4878904;29;20190;-74
2021/04/05 14:04:38;;;;;;;4.87;1.60;;;;;;;;;;4886660;29;20193;-75
2021/04/05 14:07:44;;;;;;;7.60;2.47;;;;;;;;;;4875944;29;20661;-75
2021/04/05 14:11:11;;;;;;;5.00;2.50;;;;;;;;;;4897687;29;20186;-74
2021/04/05 14:14:20;;;;;;;4.37;1.77;;;;;;;;;;4898059;29;20189;-75
2021/04/05 14:17:52;;;;;;;5.40;2.20;;;;;;;;;;4897237;29;20681;-75
2021/04/05 14:20:57;;;;;;;5.50;3.53;;;;;;;;;;4887155;29;20213;-75
2021/04/05 14:24:14;;;;;;;11.80;2.37;;;;;;;;;;4878647;29;20210;-75
2021/04/05 14:27:28;;;;;;;5.53;2.20;;;;;;;;;;4879511;29;20186;-75
2021/04/05 14:30:37;;;;;;;5.60;1.77;;;;;;;;;;4894250;29;20197;-75
2021/04/05 14:33:51;;;;;;;8.60;2.07;;;;;;;;;;4895043;29;20221;-76
2021/04/05 14:37:00;;;;;;;10.37;2.80;;;;;;;;;;4898172;29;20186;-75
2021/04/05 14:40:09;;;;;;;8.80;2.60;;;;;;;;;;4886777;29;20217;-75
2021/04/05 14:43:19;;;;;;;8.60;2.20;;;;;;;;;;4907746;29;20225;-76
2021/04/05 14:46:24;;;;;;;9.17;2.37;;;;;;;;;;4896766;29;20649;-74
2021/04/05 14:49:29;;;;;;;5.27;2.37;;;;;;;;;;4897798;29;20178;-73
2021/04/05 14:52:56;;;;;;;6.13;2.53;;;;;;;;;;4897452;29;20225;-73
2021/04/05 14:56:13;;;;;;;8.20;2.73;;;;;;;;;;4878563;29;20527;-74
2021/04/05 14:59:24;;;;;;;8.53;2.40;;;;;;;;;;4878416;29;20210;-74
2021/04/05 15:02:36;;;;;;;10.73;2.80;;;;;;;;;;4882838;29;20241;-73
2021/04/05 15:05:50;;;;;;;7.37;3.50;;;;;;;;;;4879359;29;20190;-73
2021/04/05 15:09:01;;;;;;;19.23;2.93;;;;;;;;;;4881168;29;20615;-72
2021/04/05 15:12:08;;;;;;;4.30;2.63;;;;;;;;;;4896762;29;20221;-73
2021/04/05 15:15:17;;;;;;;7.63;2.50;;;;;;;;;;4896602;29;20197;-73
2021/04/05 15:18:22;;;;;;;8.47;2.70;;;;;;;;;;4882213;29;20230;-74
2021/04/05 15:21:29;;;;;;;6.43;2.50;;;;;;;;;;4892605;29;20190;-73
2021/04/05 15:24:36;;;;;;;9.33;3.33;;;;;;;;;;4893239;29;20193;-73
2021/04/05 15:27:41;;;;;;;7.83;3.10;;;;;;;;;;4901034;29;20526;-73
2021/04/05 15:30:50;;;;;;;15.03;2.83;;;;;;;;;;4900593;29;20189;-73
2021/04/05 15:33:54;;;;;;;41.83;5.60;;;;;;;;;;4888884;29;20570;-73
2021/04/05 15:37:06;;;;;;;26.13;3.80;;;;;;;;;;4901010;29;20189;-73
2021/04/05 15:40:11;;;;;;;5.33;2.90;;;;;;;;;;4900564;29;20217;-74
2021/04/05 15:43:15;;;;;;;9.20;3.40;;;;;;;;;;4900099;29;20237;-73
2021/04/05 15:46:25;;;;;;;6.93;2.70;;;;;;;;;;4899667;29;20189;-74
2021/04/05 15:49:33;;;;;;;9.80;5.03;;;;;;;;;;4899691;29;20190;-73
2021/04/05 15:52:42;;;;;;;7.50;4.80;;;;;;;;;;4900273;29;20588;-73
2021/04/05 15:55:50;;;;;;;9.47;4.00;;;;;;;;;;4894773;29;20189;-74
2021/04/05 15:58:56;;;;;;;6.27;3.60;;;;;;;;;;4900139;29;20217;-73
2021/04/05 16:02:03;;;;;;;9.40;3.70;;;;;;;;;;4903490;29;20221;-73
2021/04/05 16:05:11;;;;;;;5.80;3.53;;;;;;;;;;4899406;29;20185;-72
2021/04/05 16:08:22;;;;;;;11.03;5.83;;;;;;;;;;4900009;29;20189;-72
2021/04/05 16:11:30;;;;;;;20.13;8.43;;;;;;;;;;4895633;29;20657;-71
2021/04/05 16:14:38;;;;;;;22.80;13.10;;;;;;;;;;4899972;29;20190;-71
2021/04/05 16:18:08;;;;;;;14.73;8.17;;;;;;;;;;4908167;29;20217;-71
2021/04/05 16:21:22;;;;;;;18.83;9.40;;;;;;;;;;4904478;29;20185;-71
2021/04/05 16:24:29;;;;;;;15.30;8.80;;;;;;;;;;4905934;29;20560;-71
2021/04/05 16:27:35;;;;;;;17.40;10.17;;;;;;;;;;4898833;29;20215;-72
2021/04/05 16:30:43;;;;;;;18.93;9.17;;;;;;;;;;4881423;29;20187;-72
2021/04/05 16:33:56;;;;;;;16.47;8.73;;;;;;;;;;4909621;29;20221;-72
2021/04/05 16:37:12;;;;;;;31.37;15.50;;;;;;;;;;4899166;29;20189;-71
2021/04/05 16:40:21;;;;;;;12.73;7.83;;;;;;;;;;4899292;29;20217;-71
2021/04/05 16:43:32;;;;;;;16.57;8.93;;;;;;;;;;4887536;29;20300;-71
2021/04/05 16:46:44;;;;;;;22.40;12.33;;;;;;;;;;4898908;29;20181;-71
2021/04/05 16:49:49;;;;;;;13.57;9.03;;;;;;;;;;4897198;29;20650;-71
2021/04/05 16:53:25;;;;;;;12.77;7.27;;;;;;;;;;4896484;29;20233;-71
2021/04/05 16:56:33;;;;;;;8.23;4.80;;;;;;;;;;4899141;29;20185;-71
2021/04/05 16:59:50;;;;;;;8.00;3.27;;;;;;;;;;4909353;29;20672;-71
2021/04/05 17:03:08;;;;;;;4.20;2.80;;;;;;;;;;4899188;29;20634;-71
2021/04/05 17:06:17;;;;;;;1.97;1.40;;;;;;;;;;4899229;29;20594;-71
2021/04/05 17:09:27;;;;;;;6.27;1.97;;;;;;;;;;4898972;29;21165;-71
2021/04/05 17:12:46;;;;;;;6.50;3.07;;;;;;;;;;4880169;29;20630;-71
2021/04/05 17:15:51;;;;;;;5.57;1.77;;;;;;;;;;4892986;29;20601;-71
2021/04/05 17:18:58;;;;;;;2.80;1.40;;;;;;;;;;4898531;29;20590;-71
2021/04/05 17:22:07;;;;;;;2.17;1.53;;;;;;;;;;4898633;29;21025;-71
2021/04/05 17:25:20;;;;;;;3.67;2.80;;;;;;;;;;4898049;29;20594;-71
2021/04/05 17:28:28;;;;;;;5.27;3.20;;;;;;;;;;4880061;29;20571;-71
2021/04/05 17:31:43;;;;;;;10.93;5.93;;;;;;;;;;4880753;29;20543;-71
2021/04/05 17:34:57;;;;;;;9.10;5.37;;;;;;;;;;4878334;29;21180;-71
2021/04/05 17:38:13;;;;;;;11.97;5.73;;;;;;;;;;4898463;29;20598;-71
2021/04/05 17:41:23;;;;;;;26.57;11.13;;;;;;;;;;4898773;29;20539;-71
2021/04/05 17:44:48;;;;;;;10.50;5.13;;;;;;;;;;4896819;29;20594;-71
2021/04/05 17:48:13;;;;;;;2.40;1.67;;;;;;;;;;4897634;29;20559;-71
2021/04/05 17:51:50;;;;;;;1.73;1.10;;;;;;;;;;4897564;29;20555;-71
2021/04/05 17:55:05;;;;;;;1.93;1.73;;;;;;;;;;4898241;29;20598;-71
2021/04/05 17:58:23;;;;;;;2.40;1.80;;;;;;;;;;4898002;29;20551;-71
2021/04/05 18:01:44;;;;;;;1.43;1.10;;;;;;;;;;4898401;29;20583;-71
2021/04/05 18:05:14;;;;;;;2.40;1.60;;;;;;;;;;4898062;29;20974;-71
2021/04/05 18:08:21;;;;;;;1.53;0.97;;;;;;;;;;4897311;29;20551;-71
2021/04/05 18:11:55;;;;;;;1.37;1.20;;;;;;;;;;4897555;29;20617;-71
2021/04/05 18:15:10;;;;;;;1.47;1.10;;;;;;;;;;4897841;29;20598;-71
2021/04/05 18:18:22;;;;;;;1.90;1.20;;;;;;;;;;4897237;29;20613;-71
2021/04/05 18:21:33;;;;;;;1.70;1.13;;;;;;;;;;4898494;29;20538;-70
2021/04/05 18:25:12;;;;;;;3.20;1.83;;;;;;;;;;4899019;29;20658;-73
2021/04/05 18:28:45;;;;;;;1.77;1.30;;;;;;;;;;4871950;29;20622;-73
2021/04/05 18:32:08;;;;;;;9.13;1.90;;;;;;;;;;4878594;29;20547;-73
2021/04/05 18:35:28;;;;;;;2.20;1.77;;;;;;;;;;4907999;29;21069;-72
2021/04/05 18:38:37;;;;;;;1.30;1.20;;;;;;;;;;4886424;29;20594;-74
2021/04/05 18:41:42;;;;;;;2.10;1.37;;;;;;;;;;4897789;29;20551;-74
2021/04/05 18:44:48;;;;;;;2.03;0.90;;;;;;;;;;4897589;29;20598;-74
2021/04/05 18:48:13;;;;;;;1.90;1.70;;;;;;;;;;4897439;29;20559;-74
2021/04/05 18:51:43;;;;;;;2.50;2.27;;;;;;;;;;4898920;29;20550;-73
2021/04/05 18:55:06;;;;;;;1.80;1.50;;;;;;;;;;4900876;29;20949;-73
2021/04/05 18:58:13;;;;;;;1.93;1.60;;;;;;;;;;4901447;29;21145;-74
2021/04/05 19:01:17;;;;;;;2.80;1.70;;;;;;;;;;4901661;29;20590;-74
2021/04/05 19:04:29;;;;;;;2.20;1.93;;;;;;;;;;4900365;29;20605;-74
2021/04/05 19:07:38;;;;;;;2.17;1.67;;;;;;;;;;4901890;29;20586;-74
2021/04/05 19:10:46;;;;;;;4.27;1.80;;;;;;;;;;4901281;29;20558;-74
2021/04/05 19:14:14;;;;;;;3.40;2.47;;;;;;;;;;4900276;29;20653;-74
2021/04/05 19:17:18;;;;;;;1.87;1.30;;;;;;;;;;4900925;29;20641;-75
2021/04/05 19:20:23;;;;;;;1.87;1.70;;;;;;;;;;4900565;29;20589;-75
2021/04/05 19:24:18;;;;;;;3.70;2.47;;;;;;;;;;4900416;29;20633;-75
2021/04/05 19:27:39;;;;;;;3.60;2.13;;;;;;;;;;4878467;29;21199;-77
2021/04/05 19:31:01;;;;;;;2.23;2.03;;;;;;;;;;4900596;29;20613;-76
2021/04/05 19:34:28;;;;;;;4.50;3.00;;;;;;;;;;4889244;29;20947;-77
2021/04/05 19:37:54;;;;;;;2.50;1.70;;;;;;;;;;4901193;29;20910;-77
2021/04/05 19:41:13;;;;;;;2.53;2.27;;;;;;;;;;4907665;29;20629;-78
2021/04/05 19:44:46;;;;;;;3.07;2.77;;;;;;;;;;4897106;29;21105;-78
2021/04/05 19:48:07;;;;;;;2.67;2.43;;;;;;;;;;4899584;29;20954;-78
2021/04/05 19:51:23;;;;;;;5.70;2.67;;;;;;;;;;4900920;29;20618;-78
2021/04/05 19:55:04;;;;;;;2.40;1.37;;;;;;;;;;4896512;29;20891;-78
2021/04/05 19:58:30;;;;;;;2.50;1.67;;;;;;;;;;4903764;29;20935;-77
2021/04/05 20:01:57;;;;;;;3.20;2.30;;;;;;;;;;4878804;29;20634;-77
2021/04/05 20:05:08;;;;;;;4.17;2.77;;;;;;;;;;4905365;29;20562;-77
2021/04/05 20:08:16;;;;;;;2.50;1.47;;;;;;;;;;4882117;29;20633;-77
2021/04/05 20:11:40;;;;;;;4.83;2.20;;;;;;;;;;4883850;29;20558;-77
2021/04/05 20:14:53;;;;;;;2.10;1.13;;;;;;;;;;4905569;29;21180;-78
2021/04/05 20:18:14;;;;;;;14.30;5.97;;;;;;;;;;4894509;29;20958;-78
2021/04/05 20:21:24;;;;;;;4.23;2.20;;;;;;;;;;4893628;29;20602;-77
2021/04/05 20:24:50;;;;;;;2.43;1.60;;;;;;;;;;4901546;29;20634;-77
2021/04/05 20:28:12;;;;;;;2.07;1.40;;;;;;;;;;4903557;29;20554;-77
2021/04/05 20:31:17;;;;;;;2.63;1.20;;;;;;;;;;4903688;29;20583;-77
2021/04/05 20:34:33;;;;;;;4.30;1.80;;;;;;;;;;4889767;29;20598;-77
2021/04/05 20:37:49;;;;;;;2.73;1.43;;;;;;;;;;4903920;29;20597;-77
2021/04/05 20:41:09;;;;;;;4.57;2.37;;;;;;;;;;4902793;29;20653;-77
2021/04/05 20:44:22;;;;;;;3.20;1.40;;;;;;;;;;4890210;29;20598;-78
2021/04/05 20:47:37;;;;;;;4.70;1.50;;;;;;;;;;4900417;29;20947;-78
2021/04/05 20:51:04;;;;;;;4.00;1.77;;;;;;;;;;4861549;29;20544;-78
2021/04/05 20:54:18;;;;;;;3.53;1.60;;;;;;;;;;4901869;29;20860;-78
2021/04/05 20:57:30;;;;;;;3.67;1.60;;;;;;;;;;4877405;29;20917;-78
2021/04/05 21:00:36;;;;;;;1.73;1.20;;;;;;;;;;4869399;29;20599;-77
2021/04/05 21:03:44;;;;;;;1.80;1.20;;;;;;;;;;4882342;29;21006;-78
2021/04/05 21:06:51;;;;;;;2.37;1.50;;;;;;;;;;4887632;29;20634;-77
2021/04/05 21:09:56;;;;;;;1.87;1.33;;;;;;;;;;4898519;29;20601;-77
2021/04/05 21:13:04;;;;;;;5.50;2.00;;;;;;;;;;4898338;29;20625;-77
2021/04/05 21:16:13;;;;;;;1.97;1.47;;;;;;;;;;4879719;29;20602;-77
2021/04/05 21:19:20;;;;;;;2.43;1.40;;;;;;;;;;4885137;29;20657;-77
2021/04/05 21:22:30;;;;;;;2.63;1.43;;;;;;;;;;4887278;29;20646;-77
2021/04/05 21:25:40;;;;;;;1.63;1.53;;;;;;;;;;4887664;29;20943;-78
2021/04/05 21:29:07;;;;;;;1.60;1.20;;;;;;;;;;4870096;29;20567;-77
2021/04/05 21:32:17;;;;;;;1.53;1.33;;;;;;;;;;4894266;29;20637;-78
2021/04/05 21:35:45;;;;;;;1.93;1.37;;;;;;;;;;4889584;29;20550;-77
2021/04/05 21:38:54;;;;;;;5.00;1.53;;;;;;;;;;4888490;29;20581;-78
2021/04/05 21:42:03;;;;;;;8.13;1.33;;;;;;;;;;4888386;29;20669;-77
2021/04/05 21:45:14;;;;;;;1.90;1.53;;;;;;;;;;4899843;29;20551;-76
2021/04/05 21:48:18;;;;;;;4.57;1.40;;;;;;;;;;4909012;29;21116;-77
2021/04/05 21:51:23;;;;;;;2.63;1.30;;;;;;;;;;4905469;29;20882;-76
2021/04/05 21:54:32;;;;;;;2.70;1.53;;;;;;;;;;4888407;29;20895;-76
2021/04/05 21:57:39;;;;;;;2.10;1.37;;;;;;;;;;4909214;29;20559;-76
2021/04/05 22:00:48;;;;;;;4.03;1.60;;;;;;;;;;4899331;29;20590;-76
2021/04/05 22:03:53;;;;;;;6.80;1.50;;;;;;;;;;4880847;29;20972;-76
2021/04/05 22:07:05;;;;;;;2.17;1.37;;;;;;;;;;4896251;29;20605;-77
2021/04/05 22:10:17;;;;;;;3.40;1.47;;;;;;;;;;4887106;29;20606;-76
2021/04/05 22:13:22;;;;;;;6.03;2.00;;;;;;;;;;4899160;29;20661;-76
2021/04/05 22:16:27;;;;;;;4.37;1.70;;;;;;;;;;4899135;29;20602;-77
2021/04/05 22:19:32;;;;;;;2.47;1.63;;;;;;;;;;4899214;29;20637;-76
2021/04/05 22:22:36;;;;;;;4.90;1.63;;;;;;;;;;4887865;29;20621;-76
2021/04/05 22:25:44;;;;;;;4.70;2.00;;;;;;;;;;4899855;29;20562;-76
2021/04/05 22:29:01;;;;;;;3.07;1.70;;;;;;;;;;4900708;29;20571;-76
2021/04/05 22:32:07;;;;;;;2.60;1.80;;;;;;;;;;4900866;29;20667;-78
2021/04/05 22:35:23;;;;;;;4.43;2.07;;;;;;;;;;4889602;29;20546;-76
2021/04/05 22:38:27;;;;;;;3.33;1.90;;;;;;;;;;4900234;29;20598;-76
2021/04/05 22:41:39;;;;;;;3.50;2.10;;;;;;;;;;4901565;29;20594;-75
2021/04/05 22:44:55;;;;;;;1.73;1.50;;;;;;;;;;4879513;29;20550;-77
2021/04/05 22:48:06;;;;;;;3.03;2.00;;;;;;;;;;4904115;29;20597;-76
2021/04/05 22:51:12;;;;;;;5.57;2.40;;;;;;;;;;4918049;29;20601;-76
2021/04/05 22:54:20;;;;;;;3.00;2.07;;;;;;;;;;4917425;29;20549;-76
2021/04/05 22:57:27;;;;;;;3.33;2.07;;;;;;;;;;4894562;29;20606;-77
2021/04/05 23:00:35;;;;;;;6.47;2.00;;;;;;;;;;4886725;29;20543;-77
2021/04/05 23:03:40;;;;;;;3.87;1.80;;;;;;;;;;4878161;29;20630;-77
2021/04/05 23:06:48;;;;;;;4.27;1.93;;;;;;;;;;4872354;29;20983;-77
2021/04/05 23:09:56;;;;;;;4.00;2.30;;;;;;;;;;4897538;29;20594;-77
2021/04/05 23:13:01;;;;;;;4.30;2.17;;;;;;;;;;4886374;29;20622;-77
2021/04/05 23:16:12;;;;;;;7.07;1.97;;;;;;;;;;4886159;29;20594;-77
2021/04/05 23:19:34;;;;;;;3.77;2.07;;;;;;;;;;4879260;29;20543;-78
2021/04/05 23:22:55;;;;;;;3.83;2.27;;;;;;;;;;4897197;29;20674;-77
2021/04/05 23:26:12;;;;;;;1.93;1.70;;;;;;;;;;4899313;29;20602;-78
2021/04/05 23:29:26;;;;;;;3.33;1.90;;;;;;;;;;4890073;29;20594;-78
2021/04/05 23:32:35;;;;;;;5.47;2.10;;;;;;;;;;4901001;29;20654;-78